Time;durP1;ratioP1;P1;durP2;ratioP2;P2;SDS_P1;SDS_P2;PMS_P1;PMS_P2;Temp;Humidity;BMP_temperature;BMP_pressure;BME280_temperature;BME280_humidity;BME280_pressure;Samples;Min_cycle;Max_cycle;Signal;HPM_P1;HPM_P2
2022/01/10 00:00:15;;;;;;;;;45.20;39.80;;;;;6.76;74.79;100425.69;4939601;28;46863;-51
2022/01/10 00:02:42;;;;;;;;;49.00;42.80;;;;;6.77;75.00;100431.97;4957192;28;45360;-49
2022/01/10 00:05:08;;;;;;;;;43.80;40.80;;;;;6.75;75.55;100436.78;4940301;28;45742;-49
2022/01/10 00:07:35;;;;;;;;;48.00;42.40;;;;;6.74;74.67;100441.38;4957591;28;45470;-48
2022/01/10 00:10:02;;;;;;;;;54.80;45.40;;;;;6.58;75.33;100415.22;4939485;28;45633;-47
2022/01/10 00:12:28;;;;;;;;;49.60;42.00;;;;;6.74;75.08;100440.56;4928383;28;45443;-49
2022/01/10 00:14:53;;;;;;;;;46.00;39.00;;;;;6.74;75.27;100451.47;4958958;28;45233;-47
2022/01/10 00:17:19;;;;;;;;;52.00;42.50;;;;;6.48;74.77;100411.97;4975908;28;45396;-49
2022/01/10 00:19:44;;;;;;;;;50.50;42.50;;;;;6.73;74.58;100466.97;4976186;28;45405;-49
2022/01/10 00:22:11;;;;;;;;;50.75;43.75;;;;;6.69;75.26;100462.09;4965400;28;45841;-46
2022/01/10 00:24:37;;;;;;;;;50.25;43.50;;;;;6.73;74.85;100475.16;4976458;28;45396;-45
2022/01/10 00:27:03;;;;;;;;;49.75;45.25;;;;;6.43;75.25;100428.03;4976357;28;45607;-47
2022/01/10 00:29:28;;;;;;;;;49.50;43.75;;;;;6.69;75.47;100471.16;4976571;28;45366;-48
2022/01/10 00:31:57;;;;;;;;;54.75;44.50;;;;;6.69;75.48;100459.38;4975899;28;45797;-48
2022/01/10 00:34:23;;;;;;;;;44.40;39.00;;;;;6.73;75.71;100463.41;4976411;28;45439;-50
2022/01/10 00:36:48;;;;;;;;;48.00;38.20;;;;;6.77;75.24;100478.34;4976554;28;45332;-46
2022/01/10 00:39:14;;;;;;;;;40.00;37.50;;;;;6.80;74.94;100477.13;4958468;28;48421;-49
2022/01/10 00:41:40;;;;;;;;;33.50;30.25;;;;;6.82;75.67;100480.50;4976357;28;45309;-49
2022/01/10 00:44:06;;;;;;;;;36.40;31.00;;;;;6.78;74.67;100477.34;4976180;28;45437;-47
2022/01/10 00:46:31;;;;;;;;;34.00;31.00;;;;;6.86;75.42;100493.56;4975335;28;45370;-46
2022/01/10 00:48:57;;;;;;;;;38.25;34.00;;;;;6.90;75.34;100496.75;4975673;28;46787;-50
2022/01/10 00:51:23;;;;;;;;;32.50;30.50;;;;;6.92;75.54;100497.41;4975168;28;45451;-47
2022/01/10 00:53:50;;;;;;;;;39.25;37.00;;;;;6.91;74.69;100496.56;4976566;28;45300;-51
2022/01/10 00:56:17;;;;;;;;;45.60;38.40;;;;;6.86;75.37;100492.72;4976005;28;45419;-50
2022/01/10 00:58:42;;;;;;;;;49.00;42.40;;;;;6.93;75.49;100495.53;4976482;28;45379;-49
2022/01/10 01:01:08;;;;;;;;;43.25;42.00;;;;;6.94;74.49;100499.94;4975835;28;45308;-48
2022/01/10 01:03:33;;;;;;;;;44.00;34.25;;;;;6.83;75.39;100488.47;4976010;28;45316;-48
2022/01/10 01:05:59;;;;;;;;;50.25;43.00;;;;;6.88;74.83;100498.84;4974619;28;45275;-48
2022/01/10 01:08:27;;;;;;;;;43.75;38.50;;;;;6.90;75.28;100504.94;4975897;28;45257;-49
2022/01/10 01:13:38;;;;;;;;;51.00;42.80;;;;;6.95;74.87;100512.53;4976139;28;45411;-47
2022/01/10 01:26:26;;;;;;;;;37.80;35.20;;;;;6.86;74.72;100529.03;4975738;28;45446;-49
2022/01/10 01:28:52;;;;;;;;;31.00;24.00;;;;;7.01;75.30;100552.69;4958143;28;46374;-48
2022/01/10 01:31:17;;;;;;;;;27.50;24.75;;;;;6.95;75.02;100537.94;4975280;28;45339;-47
2022/01/10 01:33:43;;;;;;;;;23.75;22.00;;;;;6.99;74.73;100555.59;4975929;28;45344;-47
2022/01/10 01:36:08;;;;;;;;;25.50;21.00;;;;;6.75;74.99;100513.16;4975910;28;45351;-47
2022/01/10 01:38:34;;;;;;;;;25.25;21.75;;;;;6.78;74.81;100520.97;4957798;28;45338;-47
2022/01/10 01:41:18;;;;;;;;;22.00;22.00;;;;;7.05;74.75;100568.50;4958139;28;45286;-48
2022/01/10 01:43:44;;;;;;;;;21.60;19.20;;;;;7.08;74.91;100577.31;4975728;28;45320;-50
2022/01/10 01:46:09;;;;;;;;;19.00;19.00;;;;;7.08;75.00;100585.50;4976024;28;45233;-48
2022/01/10 01:48:35;;;;;;;;;21.25;18.00;;;;;7.09;74.40;100584.50;4974822;28;46052;-49
2022/01/10 01:51:01;;;;;;;;;23.75;20.50;;;;;6.90;74.83;100552.16;4950003;28;45615;-47
2022/01/10 01:53:26;;;;;;;;;30.00;27.80;;;;;6.94;74.30;100563.53;4950862;28;45797;-49
2022/01/10 01:55:52;;;;;;;;;34.25;29.75;;;;;7.05;74.68;100587.59;4956156;28;45357;-49
2022/01/10 01:58:17;;;;;;;;;33.50;31.00;;;;;7.11;75.01;100602.38;4955403;28;46424;-49
2022/01/10 02:00:43;;;;;;;;;34.75;33.25;;;;;7.13;75.17;100602.16;4956094;28;45424;-46
2022/01/10 02:03:08;;;;;;;;;38.75;36.25;;;;;7.10;75.55;100592.47;4955272;28;45436;-49
2022/01/10 02:05:34;;;;;;;;;42.00;39.25;;;;;7.13;74.80;100599.44;4955816;28;45559;-49
2022/01/10 02:07:59;;;;;;;;;42.25;34.75;;;;;7.11;75.37;100599.66;4957366;28;45984;-46
2022/01/10 02:10:25;;;;;;;;;47.25;40.50;;;;;6.91;75.34;100562.06;4959168;28;45360;-47
2022/01/10 02:12:51;;;;;;;;;42.25;35.00;;;;;7.13;74.63;100599.44;4960863;28;45346;-52
2022/01/10 02:15:58;;;;;;;;;39.75;33.25;;;;;7.14;75.22;100615.63;4978424;28;45597;-48
2022/01/10 02:18:23;;;;;;;;;37.80;34.00;;;;;7.14;74.98;100609.31;4970258;28;46373;-48
2022/01/10 02:20:49;;;;;;;;;37.25;34.00;;;;;7.09;74.71;100612.63;4977783;28;45332;-47
2022/01/10 02:23:15;;;;;;;;;33.50;32.25;;;;;7.04;74.88;100601.41;4976962;28;45691;-48
2022/01/10 02:25:41;;;;;;;;;47.20;38.80;;;;;6.96;74.94;100593.34;4978370;28;45287;-49
2022/01/10 02:28:07;;;;;;;;;46.80;39.00;;;;;7.00;74.95;100605.59;4977800;28;45482;-49
2022/01/10 02:30:32;;;;;;;;;44.25;36.50;;;;;7.04;75.25;100613.19;4978413;28;45304;-49
2022/01/10 02:33:00;;;;;;;;;46.00;38.25;;;;;7.03;75.04;100614.25;4977848;28;45348;-47
2022/01/10 02:35:46;;;;;;;;;47.75;41.75;;;;;6.90;75.47;100589.53;4978306;28;45443;-48
2022/01/10 02:38:12;;;;;;;;;60.80;41.80;;;;;6.98;75.38;100613.97;4978419;28;45941;-49
2022/01/10 02:40:38;;;;;;;;;38.50;37.75;;;;;6.99;75.00;100620.28;4981267;28;45408;-49
2022/01/10 02:43:07;;;;;;;;;50.25;38.50;;;;;6.81;75.62;100593.38;4977881;28;45425;-49
2022/01/10 02:45:32;;;;;;;;;51.75;41.25;;;;;6.93;75.24;100624.59;4978606;28;45581;-48
2022/01/10 02:47:58;;;;;;;;;42.00;39.50;;;;;6.96;75.26;100623.38;4977819;28;46239;-48
2022/01/10 02:50:23;;;;;;;;;50.00;40.50;;;;;6.92;75.97;100633.81;4977926;28;45417;-46
2022/01/10 02:52:49;;;;;;;;;46.75;39.50;;;;;6.90;75.71;100636.72;4977479;28;45742;-52
2022/01/10 02:55:14;;;;;;;;;43.25;39.00;;;;;6.81;75.99;100637.88;4977720;28;45590;-47
2022/01/10 02:57:40;;;;;;;;;38.50;36.00;;;;;6.85;75.23;100644.66;4977731;28;45936;-45
2022/01/10 03:00:13;;;;;;;;;39.75;39.00;;;;;6.60;76.04;100605.91;4972602;28;45395;-51
2022/01/10 03:02:38;;;;;;;;;43.60;40.40;;;;;6.79;75.57;100639.97;4944768;28;45461;-47
2022/01/10 03:05:05;;;;;;;;;40.75;39.25;;;;;6.57;75.47;100618.03;4954829;28;45451;-47
2022/01/10 03:07:30;;;;;;;;;41.40;37.60;;;;;6.51;75.74;100610.63;4904262;28;45674;-48
2022/01/10 03:09:56;;;;;;;;;47.75;40.00;;;;;6.54;75.70;100621.16;4957198;28;45492;-48
2022/01/10 03:12:21;;;;;;;;;49.50;42.00;;;;;6.83;75.62;100668.53;4956943;28;45452;-47
2022/01/10 03:14:47;;;;;;;;;49.50;40.25;;;;;6.77;75.18;100663.84;4956792;28;45615;-50
2022/01/10 03:17:12;;;;;;;;;42.50;37.00;;;;;6.73;75.84;100668.81;4957429;28;46020;-48
2022/01/10 03:19:38;;;;;;;;;43.25;39.25;;;;;6.59;75.33;100666.94;4972902;28;45443;-47
2022/01/10 03:22:04;;;;;;;;;45.75;40.00;;;;;6.68;75.83;100682.22;4973186;28;45349;-48
2022/01/10 03:24:30;;;;;;;;;44.00;36.50;;;;;6.48;76.20;100644.59;4958024;28;45305;-46
2022/01/10 03:26:55;;;;;;;;;3.50;0.00;;;;;6.71;76.03;100675.50;4972855;28;46497;-48
2022/01/10 03:29:21;;;;;;;;;41.75;37.50;;;;;6.53;75.85;100648.59;4957955;28;45298;-48
2022/01/10 03:31:47;;;;;;;;;49.00;39.75;;;;;6.69;76.43;100674.84;4957924;28;45241;-47
2022/01/10 03:34:13;;;;;;;;;44.50;38.50;;;;;6.73;75.68;100689.81;4972918;28;45613;-48
2022/01/10 03:36:42;;;;;;;;;41.60;38.60;;;;;6.76;76.08;100689.44;4957633;28;45954;-47
2022/01/10 03:39:08;;;;;;;;;36.40;35.00;;;;;6.68;76.32;100678.63;4971961;28;45436;-46
2022/01/10 03:41:35;;;;;;;;;47.75;38.50;;;;;6.75;75.70;100693.19;4972657;28;45381;-48
2022/01/10 03:44:01;;;;;;;;;44.00;37.20;;;;;6.75;76.03;100706.84;4958228;28;45384;-48
2022/01/10 03:46:28;;;;;;;;;44.25;38.50;;;;;6.70;75.58;100696.50;4955876;28;47019;-46
2022/01/10 03:48:53;;;;;;;;;39.80;38.20;;;;;6.74;75.86;100705.16;4957664;28;45468;-45
2022/01/10 03:51:19;;;;;;;;;47.00;39.50;;;;;6.63;75.65;100707.28;4957687;28;45333;-48
2022/01/10 03:53:44;;;;;;;;;42.25;38.75;;;;;6.71;75.45;100713.69;4957799;28;45689;-51
2022/01/10 03:56:10;;;;;;;;;43.00;39.25;;;;;6.70;75.38;100718.31;4957427;28;46761;-48
2022/01/10 03:58:35;;;;;;;;;43.75;38.25;;;;;6.32;75.60;100664.69;4961894;28;45506;-50
2022/01/10 04:01:02;;;;;;;;;38.75;34.25;;;;;6.56;75.74;100700.91;4975846;28;45441;-49
2022/01/10 04:03:28;;;;;;;;;46.40;37.80;;;;;6.63;75.52;100718.19;4966530;28;45395;-48
2022/01/10 04:05:54;;;;;;;;;40.25;36.50;;;;;6.63;75.84;100729.13;4973892;28;46226;-47
2022/01/10 04:08:19;;;;;;;;;44.00;39.75;;;;;6.37;75.72;100692.22;4975209;28;45394;-48
2022/01/10 04:10:45;;;;;;;;;45.75;39.25;;;;;6.59;76.26;100726.94;4976309;28;45336;-50
2022/01/10 04:13:10;;;;;;;;;45.25;39.50;;;;;6.59;75.50;100730.53;4976974;28;45359;-47
2022/01/10 04:15:36;;;;;;;;;55.75;39.75;;;;;6.54;75.94;100732.09;4976175;28;46055;-49
2022/01/10 04:18:02;;;;;;;;;47.75;41.75;;;;;6.57;75.66;100746.22;4976698;28;45305;-50
2022/01/10 04:20:28;;;;;;;;;47.60;41.40;;;;;6.59;76.42;100754.22;4976174;28;45377;-48
2022/01/10 04:22:53;;;;;;;;;45.50;41.00;;;;;6.59;75.72;100754.22;4975342;28;45541;-45
2022/01/10 04:25:19;;;;;;;;;54.25;43.25;;;;;6.22;76.25;100703.09;4976741;28;45654;-50
2022/01/10 04:27:45;;;;;;;;;40.75;38.25;;;;;6.56;76.01;100749.97;4975533;28;45277;-47
2022/01/10 04:30:10;;;;;;;;;43.50;42.00;;;;;6.39;75.77;100723.91;4975934;28;45263;-47
2022/01/10 04:32:37;;;;;;;;;42.75;39.75;;;;;6.57;75.88;100764.47;4975339;28;45478;-48
2022/01/10 04:35:03;;;;;;;;;43.40;41.20;;;;;6.56;75.88;100771.81;4976466;28;45931;-50
2022/01/10 04:37:28;;;;;;;;;46.50;41.00;;;;;6.50;76.47;100753.44;4958436;28;45266;-46
2022/01/10 04:39:54;;;;;;;;;47.75;42.50;;;;;6.55;75.86;100767.38;4958534;28;45295;-47
2022/01/10 04:42:19;;;;;;;;;47.50;41.25;;;;;6.48;76.61;100767.28;4976394;28;45301;-49
2022/01/10 04:44:45;;;;;;;;;40.00;37.25;;;;;6.51;76.47;100779.69;4976157;28;45731;-46
2022/01/10 04:47:10;;;;;;;;;47.25;40.00;;;;;6.50;76.42;100787.03;4976282;28;45345;-46
2022/01/10 04:50:03;;;;;;;;;46.00;41.00;;;;;6.50;76.23;100794.34;4976598;28;45736;-50
2022/01/10 04:52:21;;;;;;;;;46.60;39.20;;;;;6.21;75.93;100752.34;4976045;28;45597;-47
2022/01/10 04:54:47;;;;;;;;;45.00;40.50;;;;;6.44;76.01;100798.66;4974222;28;46989;-49
2022/01/10 04:57:12;;;;;;;;;43.00;38.25;;;;;6.46;76.03;100810.22;4976264;28;45292;-49
2022/01/10 04:59:37;;;;;;;;;49.75;41.50;;;;;6.49;75.88;100814.47;4976158;28;45477;-47
2022/01/10 05:02:03;;;;;;;;;46.75;39.00;;;;;6.42;76.03;100811.66;4976269;28;45306;-50
2022/01/10 05:04:29;;;;;;;;;42.75;40.75;;;;;6.47;76.16;100822.84;4975606;28;46393;-47
2022/01/10 05:06:54;;;;;;;;;49.75;39.25;;;;;6.10;76.45;100762.63;4975981;28;45324;-48
2022/01/10 05:09:20;;;;;;;;;49.50;42.00;;;;;6.45;76.48;100827.63;4952352;28;46009;-49
2022/01/10 05:11:48;;;;;;;;;45.75;39.50;;;;;6.45;76.32;100829.53;4974779;28;46049;-49
2022/01/10 05:14:13;;;;;;;;;36.80;34.00;;;;;6.43;75.91;100829.69;4974503;28;45447;-50
2022/01/10 05:16:40;;;;;;;;;44.00;40.00;;;;;6.31;76.48;100821.09;4972431;28;45307;-48
2022/01/10 05:19:07;;;;;;;;;51.00;42.20;;;;;6.42;75.79;100840.78;4973136;28;45385;-48
2022/01/10 05:21:32;;;;;;;;;41.40;39.20;;;;;6.40;76.51;100842.84;4974925;28;45440;-47
2022/01/10 05:23:58;;;;;;;;;46.00;39.75;;;;;6.41;76.02;100847.28;4975162;28;45806;-47
2022/01/10 05:26:24;;;;;;;;;51.00;43.25;;;;;6.35;76.65;100844.22;4976455;28;45411;-57
2022/01/10 05:28:49;;;;;;;;;44.00;40.75;;;;;6.37;76.09;100853.06;4958503;28;45424;-51
2022/01/10 05:31:15;;;;;;;;;46.25;42.00;;;;;6.11;75.89;100818.00;4975975;28;45605;-48
2022/01/10 05:33:40;;;;;;;;;53.75;44.50;;;;;6.13;76.32;100823.28;4975620;28;46198;-49
2022/01/10 05:36:06;;;;;;;;;49.25;42.75;;;;;6.35;76.65;100876.13;4975093;28;45429;-47
2022/01/10 05:38:31;;;;;;;;;54.25;43.00;;;;;6.30;76.83;100865.72;4974401;28;45496;-47
2022/01/10 05:40:57;;;;;;;;;48.75;41.00;;;;;6.13;76.54;100839.63;4975225;28;45360;-45
2022/01/10 05:43:22;;;;;;;;;54.25;43.00;;;;;6.29;76.04;100872.22;4977740;28;45374;-48
2022/01/10 05:45:48;;;;;;;;;54.50;42.00;;;;;6.30;76.21;100875.81;4979251;28;45325;-49
2022/01/10 05:48:21;;;;;;;;;50.25;42.00;;;;;6.30;76.55;100881.25;4977864;28;45347;-49
2022/01/10 05:50:46;;;;;;;;;45.75;42.25;;;;;6.30;76.52;100890.25;4961095;28;45398;-50
2022/01/10 05:53:12;;;;;;;;;48.50;44.25;;;;;6.30;75.98;100894.88;4978612;28;46005;-45
2022/01/10 05:55:37;;;;;;;;;46.50;39.50;;;;;6.28;75.99;100897.78;4961362;28;45406;-50
2022/01/10 05:58:06;;;;;;;;;52.00;42.00;;;;;6.26;76.59;100896.25;4979024;28;45335;-51
2022/01/10 06:00:33;;;;;;;;;48.00;40.25;;;;;6.10;76.67;100873.53;4978090;28;45328;-47
2022/01/10 06:02:58;;;;;;;;;46.75;41.25;;;;;6.09;76.00;100880.03;4978741;28;45696;-48
2022/01/10 06:05:29;;;;;;;;;55.75;43.25;;;;;5.53;76.09;100808.25;4978455;28;45498;-47
2022/01/10 06:07:54;;;;;;;;;55.00;45.50;;;;;6.05;76.67;100895.03;4979032;28;45332;-46
2022/01/10 06:10:20;;;;;;;;;54.50;42.75;;;;;6.25;76.37;100928.16;4978726;28;45198;-50
2022/01/10 06:12:45;;;;;;;;;53.50;44.00;;;;;6.22;76.77;100928.47;4962192;28;46729;-46
2022/01/10 06:15:11;;;;;;;;;53.75;43.00;;;;;6.24;77.04;100940.91;4977243;28;45373;-49
2022/01/10 06:17:36;;;;;;;;;50.75;44.50;;;;;6.24;76.30;100951.81;4978951;28;45269;-48
2022/01/10 06:20:03;;;;;;;;;43.75;39.75;;;;;6.23;76.22;100969.19;4978899;28;45561;-50
2022/01/10 06:22:28;;;;;;;;;36.25;36.25;;;;;6.21;76.59;100965.81;4978069;28;47834;-48
2022/01/10 06:24:54;;;;;;;;;51.00;46.25;;;;;6.04;76.84;100950.56;4978533;28;45978;-48
2022/01/10 06:27:20;;;;;;;;;54.00;40.75;;;;;6.20;76.74;100979.63;4977202;28;45421;-49
2022/01/10 06:29:45;;;;;;;;;50.50;40.00;;;;;6.17;76.49;100979.94;4978668;28;45389;-45
2022/01/10 06:32:11;;;;;;;;;46.25;40.25;;;;;6.17;76.63;100985.41;4961155;28;45951;-45
2022/01/10 06:34:36;;;;;;;;;58.25;45.75;;;;;5.54;76.29;100877.16;4960460;28;45385;-48
2022/01/10 06:37:02;;;;;;;;;54.00;45.50;;;;;6.15;75.93;100988.31;4961284;28;45392;-46
2022/01/10 06:39:28;;;;;;;;;46.50;42.75;;;;;5.87;76.50;100950.56;4978067;28;45655;-45
2022/01/10 06:41:53;;;;;;;;;48.75;41.75;;;;;6.17;76.17;100991.72;4978016;28;46273;-50
2022/01/10 06:44:19;;;;;;;;;57.50;45.50;;;;;6.18;76.17;101001.59;4960808;28;45383;-50
2022/01/10 06:46:44;;;;;;;;;49.75;43.00;;;;;6.20;75.97;101006.88;4978072;28;45371;-50
2022/01/10 06:49:10;;;;;;;;;49.50;43.00;;;;;6.18;75.70;101017.06;4978214;28;45360;-48
2022/01/10 06:51:35;;;;;;;;;56.50;45.75;;;;;6.06;76.35;101012.03;4960352;28;47950;-52
2022/01/10 06:54:01;;;;;;;;;50.50;42.50;;;;;6.14;76.35;101021.19;4977092;28;45339;-50
2022/01/10 06:56:27;;;;;;;;;56.25;46.50;;;;;6.17;76.18;101034.47;4977929;28;45310;-49
2022/01/10 06:58:53;;;;;;;;;51.50;43.75;;;;;6.13;75.28;101038.59;4978010;28;45201;-49
2022/01/10 07:01:20;;;;;;;;;41.25;40.00;;;;;6.06;76.24;101052.03;4977711;28;46871;-49
2022/01/10 07:03:46;;;;;;;;;57.00;46.20;;;;;6.05;76.33;101064.84;4977262;28;45359;-48
2022/01/10 07:06:11;;;;;;;;;56.00;44.00;;;;;6.06;75.46;101071.13;4977859;28;45385;-48
2022/01/10 07:08:37;;;;;;;;;44.25;36.00;;;;;6.06;75.76;101071.97;4955304;28;45902;-49
2022/01/10 07:11:02;;;;;;;;;44.00;40.25;;;;;6.08;75.67;101075.38;4976423;28;46306;-49
2022/01/10 07:13:28;;;;;;;;;45.75;38.25;;;;;5.86;75.43;101049.66;4976193;28;45307;-50
2022/01/10 07:15:53;;;;;;;;;48.75;41.25;;;;;6.09;75.97;101098.88;4976066;28;45424;-50
2022/01/10 07:18:19;;;;;;;;;44.75;38.50;;;;;6.09;76.41;101107.06;4978093;28;45611;-50
2022/01/10 07:20:45;;;;;;;;;44.75;38.25;;;;;6.10;76.03;101110.63;4977147;28;45880;-48
2022/01/10 07:23:10;;;;;;;;;37.50;31.75;;;;;5.96;75.42;101090.34;4977379;28;45317;-52
2022/01/10 07:25:36;;;;;;;;;40.25;32.75;;;;;6.04;76.17;101112.16;4977625;28;45332;-49
2022/01/10 07:28:02;;;;;;;;;31.60;24.60;;;;;6.01;75.78;101122.53;4940329;28;45874;-47
2022/01/10 07:30:28;;;;;;;;;42.50;33.25;;;;;5.79;76.02;101103.16;4977014;28;46069;-49
2022/01/10 07:32:53;;;;;;;;;34.50;28.25;;;;;5.94;75.62;101136.84;4976885;28;45750;-49
2022/01/10 07:35:19;;;;;;;;;30.25;26.00;;;;;5.99;75.98;101140.94;4977340;28;45516;-47
2022/01/10 07:37:44;;;;;;;;;29.00;27.75;;;;;5.97;75.76;101144.69;4977376;28;45436;-48
2022/01/10 07:40:10;;;;;;;;;24.25;23.25;;;;;5.94;76.16;101153.19;4976793;28;46580;-49
2022/01/10 07:42:36;;;;;;;;;33.20;28.80;;;;;5.93;75.65;101169.72;4976937;28;45377;-47
2022/01/10 07:45:03;;;;;;;;;34.25;27.25;;;;;5.85;75.65;101156.94;4977104;28;45327;-49
2022/01/10 07:47:28;;;;;;;;;26.40;25.00;;;;;5.90;75.92;101183.69;4976440;28;45574;-52
2022/01/10 07:49:54;;;;;;;;;29.00;27.75;;;;;5.74;75.86;101158.13;4976901;28;45337;-50
2022/01/10 07:52:19;;;;;;;;;31.75;25.75;;;;;5.89;75.71;101196.47;4977125;28;45261;-48
2022/01/10 07:54:45;;;;;;;;;27.50;22.00;;;;;5.66;75.64;101171.75;4976963;28;45270;-49
2022/01/10 07:57:10;;;;;;;;;26.75;21.25;;;;;5.81;76.07;101210.91;4977755;28;45301;-52
2022/01/10 07:59:36;;;;;;;;;31.75;26.00;;;;;5.79;75.45;101207.53;4978719;28;45600;-51
2022/01/10 08:02:01;;;;;;;;;30.50;28.25;;;;;5.37;74.47;101157.59;4976782;28;45210;-48
2022/01/10 08:04:27;;;;;;;;;29.75;27.25;;;;;5.50;75.30;101203.38;4976504;28;45346;-49
2022/01/10 08:06:53;;;;;;;;;30.75;24.75;;;;;5.66;75.01;101232.50;4960111;28;45186;-47
2022/01/10 08:09:18;;;;;;;;;33.75;28.00;;;;;5.58;74.93;101229.78;4977048;28;45939;-47
2022/01/10 08:11:44;;;;;;;;;34.25;27.50;;;;;5.62;75.58;101238.47;4974254;28;45538;-50
2022/01/10 08:14:09;;;;;;;;;36.75;31.50;;;;;5.56;75.49;101232.66;4921564;28;45938;-47
2022/01/10 08:16:35;;;;;;;;;50.75;36.75;;;;;5.41;75.83;101216.13;4977086;28;45505;-47
2022/01/10 08:19:00;;;;;;;;;36.25;28.75;;;;;5.58;75.97;101251.56;4976924;28;46198;-52
2022/01/10 08:21:26;;;;;;;;;48.00;31.75;;;;;5.41;75.49;101212.56;4976076;28;45626;-49
2022/01/10 08:23:52;;;;;;;;;44.25;36.00;;;;;5.47;75.23;101220.06;4959346;28;45417;-48
2022/01/10 08:26:17;;;;;;;;;37.00;32.50;;;;;5.65;75.70;101255.34;4942797;28;45566;-53
2022/01/10 08:28:43;;;;;;;;;39.50;34.75;;;;;5.66;74.19;101258.91;4974877;28;45908;-51
2022/01/10 08:31:11;;;;;;;;;39.00;31.00;;;;;5.38;74.57;101226.50;4974797;28;45321;-48
2022/01/10 08:33:37;;;;;;;;;27.80;27.80;;;;;5.54;74.13;101261.94;4975579;28;45475;-48
2022/01/10 08:36:03;;;;;;;;;29.25;26.75;;;;;5.53;75.13;101283.88;4975409;28;45361;-49
2022/01/10 08:38:28;;;;;;;;;28.25;20.50;;;;;5.52;75.06;101279.47;4976415;28;46717;-49
2022/01/10 08:40:54;;;;;;;;;30.50;28.75;;;;;5.53;74.68;101282.03;4958729;28;45415;-49
2022/01/10 08:43:19;;;;;;;;;31.50;29.25;;;;;5.52;74.37;101288.50;4974985;28;45409;-49
2022/01/10 08:45:45;;;;;;;;;33.75;28.25;;;;;5.52;73.81;101295.81;4948794;28;45410;-52
2022/01/10 08:48:10;;;;;;;;;33.50;29.00;;;;;5.49;74.82;101296.16;4966525;28;46295;-48
2022/01/10 08:50:36;;;;;;;;;34.50;25.00;;;;;5.50;74.57;101298.69;4971096;28;45363;-47
2022/01/10 08:53:03;;;;;;;;;31.75;26.50;;;;;5.35;74.42;101267.66;4954030;28;45532;-51
2022/01/10 08:55:28;;;;;;;;;25.00;20.80;;;;;5.49;74.92;101286.09;4971803;28;45509;-49
2022/01/10 08:57:54;;;;;;;;;29.75;23.00;;;;;5.49;74.53;101299.69;4971033;28;46075;-51
2022/01/10 09:00:19;;;;;;;;;24.00;20.25;;;;;5.47;73.75;101319.94;4953922;28;45531;-49
2022/01/10 09:02:45;;;;;;;;;31.50;23.25;;;;;5.37;74.84;101318.22;4954472;28;45375;-51
2022/01/10 09:05:11;;;;;;;;;22.00;17.00;;;;;5.49;74.91;101332.38;4972230;28;45385;-51
2022/01/10 09:07:36;;;;;;;;;32.00;23.00;;;;;5.36;74.13;101310.19;4954418;28;47579;-49
2022/01/10 09:10:02;;;;;;;;;23.75;20.25;;;;;5.47;74.31;101339.00;4969634;28;45431;-51
2022/01/10 09:12:28;;;;;;;;;29.40;25.60;;;;;5.36;74.55;101323.81;4947425;28;45844;-46
2022/01/10 09:14:53;;;;;;;;;27.25;23.25;;;;;4.84;74.97;101243.97;4970827;28;45529;-51
2022/01/10 09:17:19;;;;;;;;;28.25;26.75;;;;;5.59;74.37;101351.31;4970050;28;45717;-51
2022/01/10 09:19:44;;;;;;;;;27.00;24.75;;;;;5.41;74.53;101319.56;4971449;28;45475;-50
2022/01/10 09:22:10;;;;;;;;;23.75;21.25;;;;;5.35;74.09;101313.94;4952890;28;45562;-49
2022/01/10 09:24:35;;;;;;;;;32.75;29.00;;;;;5.38;74.53;101338.97;4971719;28;45501;-49
2022/01/10 09:27:01;;;;;;;;;31.00;25.00;;;;;5.59;73.49;101372.25;4971932;28;46488;-47
2022/01/10 09:29:26;;;;;;;;;32.50;25.00;;;;;5.57;74.01;101367.81;4953569;28;45519;-48
2022/01/10 09:31:52;;;;;;;;;33.50;26.75;;;;;5.51;74.44;101357.56;4971496;28;45407;-48
2022/01/10 09:34:17;;;;;;;;;34.00;26.50;;;;;5.54;73.91;101370.00;4970889;28;46329;-48
2022/01/10 09:36:43;;;;;;;;;29.75;25.75;;;;;5.54;74.16;101365.44;4970883;28;45434;-49
2022/01/10 09:39:09;;;;;;;;;23.50;23.25;;;;;5.61;74.20;101376.50;4971710;28;45439;-49
2022/01/10 09:41:35;;;;;;;;;36.00;22.60;;;;;5.62;74.34;101382.81;4972223;28;45718;-51
2022/01/10 09:44:02;;;;;;;;;30.75;29.50;;;;;5.41;74.39;101356.84;4973226;28;45504;-56
2022/01/10 09:46:28;;;;;;;;;25.80;24.60;;;;;5.62;74.36;101399.16;4927393;28;47778;-48
2022/01/10 09:48:54;;;;;;;;;31.50;26.00;;;;;5.63;74.15;101400.84;4972482;28;45765;-48
2022/01/10 09:51:21;;;;;;;;;34.75;26.00;;;;;5.62;74.97;101394.56;4954570;28;45522;-54
2022/01/10 09:53:48;;;;;;;;;35.20;27.40;;;;;5.04;73.98;101296.28;4954442;28;45500;-49
2022/01/10 09:56:14;;;;;;;;;36.00;28.20;;;;;5.65;75.05;101423.34;4971450;28;45881;-52
2022/01/10 09:58:39;;;;;;;;;36.50;28.00;;;;;5.66;74.65;101422.34;4970580;28;45517;-48
2022/01/10 10:01:04;;;;;;;;;32.00;26.75;;;;;5.71;73.45;101419.94;4970323;28;45820;-48
2022/01/10 10:03:30;;;;;;;;;24.00;23.50;;;;;5.61;73.61;101432.84;4971253;28;45739;-48
2022/01/10 10:05:56;;;;;;;;;32.50;27.50;;;;;5.56;74.40;101430.63;4971097;28;45494;-49
2022/01/10 10:08:22;;;;;;;;;31.00;27.60;;;;;5.25;74.63;101384.84;4970804;28;45329;-49
2022/01/10 10:10:51;;;;;;;;;24.50;22.50;;;;;5.57;74.09;101443.22;4969072;28;45393;-50
2022/01/10 10:13:16;;;;;;;;;35.40;27.80;;;;;5.53;74.98;101448.13;4949853;28;45415;-50
2022/01/10 10:15:44;;;;;;;;;28.25;26.75;;;;;5.64;74.39;101449.72;4970961;28;46419;-51
2022/01/10 10:18:14;;;;;;;;;39.00;30.80;;;;;5.70;74.21;101453.66;4971038;28;45340;-48
2022/01/10 10:20:41;;;;;;;;;31.80;28.00;;;;;5.70;73.97;101445.50;4954139;28;45518;-48
2022/01/10 10:23:06;;;;;;;;;30.80;23.00;;;;;5.73;74.04;101449.75;4952453;28;45545;-49
2022/01/10 10:25:33;;;;;;;;;29.00;25.00;;;;;5.64;75.01;101438.84;4953639;28;45988;-51
2022/01/10 10:27:59;;;;;;;;;33.60;29.40;;;;;5.67;74.27;101454.00;4955751;28;45555;-50
2022/01/10 10:30:27;;;;;;;;;31.25;29.00;;;;;5.65;74.32;101456.03;4940691;28;45382;-49
2022/01/10 10:33:19;;;;;;;;;36.60;27.20;;;;;5.62;75.26;101451.78;4970976;28;45785;-48
2022/01/10 10:35:45;;;;;;;;;40.40;31.00;;;;;5.67;75.83;101451.28;4964652;28;45806;-48
2022/01/10 10:38:11;;;;;;;;;31.00;25.00;;;;;5.64;74.52;101436.09;4954657;28;45472;-51
2022/01/10 10:40:41;;;;;;;;;38.75;31.00;;;;;5.80;74.89;101459.00;4955672;28;45353;-51
2022/01/10 10:43:07;;;;;;;;;35.80;28.60;;;;;5.87;75.35;101476.38;4973784;28;45411;-50
2022/01/10 10:45:33;;;;;;;;;36.60;28.20;;;;;5.64;74.10;101432.53;4973813;28;46575;-47
2022/01/10 10:48:04;;;;;;;;;36.00;31.25;;;;;5.85;74.72;101470.25;4957025;28;45454;-49
2022/01/10 10:50:33;;;;;;;;;32.00;29.00;;;;;5.87;75.13;101481.84;4957260;28;45952;-49
2022/01/10 10:52:59;;;;;;;;;35.40;28.20;;;;;5.69;75.01;101452.81;4956057;28;45849;-50
2022/01/10 10:55:24;;;;;;;;;29.50;25.00;;;;;5.84;75.02;101483.03;4970955;28;45415;-48
2022/01/10 10:57:50;;;;;;;;;34.25;28.25;;;;;5.88;75.39;101480.84;4956209;28;45828;-49
2022/01/10 11:00:16;;;;;;;;;39.50;31.75;;;;;5.87;75.39;101483.72;4972072;28;45440;-50
2022/01/10 11:02:43;;;;;;;;;34.40;29.80;;;;;5.89;75.07;101495.31;4972894;28;45378;-48
2022/01/10 11:05:09;;;;;;;;;42.50;31.75;;;;;5.93;75.12;101502.16;4973235;28;46114;-50
2022/01/10 11:07:35;;;;;;;;;42.25;35.50;;;;;6.01;74.59;101494.00;4973173;28;45762;-51
2022/01/10 11:10:05;;;;;;;;;30.40;27.00;;;;;5.90;74.35;101481.53;4954611;28;45485;-50
2022/01/10 11:12:31;;;;;;;;;30.60;27.20;;;;;5.95;74.17;101503.69;4943225;28;45414;-48
2022/01/10 11:14:59;;;;;;;;;28.00;25.00;;;;;5.90;73.80;101500.59;4955058;28;47345;-47
2022/01/10 11:17:24;;;;;;;;;45.00;29.40;;;;;5.87;74.40;101498.19;4971591;28;45511;-47
2022/01/10 11:20:13;;;;;;;;;37.75;32.50;;;;;5.89;74.16;101495.31;4973130;28;45895;-50
2022/01/10 11:22:47;;;;;;;;;27.40;24.20;;;;;5.91;74.73;101490.53;4974203;28;45414;-54
2022/01/10 11:25:29;;;;;;;;;30.80;26.20;;;;;5.78;74.18;101480.09;4973107;28;45734;-50